Time;durP1;ratioP1;P1;durP2;ratioP2;P2;SDS_P1;SDS_P2;PMS_P1;PMS_P2;Temp;Humidity;BMP_temperature;BMP_pressure;BME280_temperature;BME280_humidity;BME280_pressure;Samples;Min_cycle;Max_cycle;Signal;HPM_P1;HPM_P2
2024/02/24 00:02:25;;;;;;;2.30;1.30;;;;;;;13.00;46.83;94621.69;5087989;28;20040;-75
2024/02/24 00:04:50;;;;;;;1.88;1.30;;;;;;;13.03;45.99;94613.25;5087227;28;20059;-77
2024/02/24 00:07:15;;;;;;;1.88;1.38;;;;;;;13.11;45.83;94630.25;5088499;28;20021;-76
2024/02/24 00:09:41;;;;;;;2.33;1.05;;;;;;;13.09;45.30;94607.13;5086602;28;20031;-76
2024/02/24 00:12:06;;;;;;;1.90;1.00;;;;;;;13.16;45.04;94607.56;5088558;28;20020;-76
2024/02/24 00:14:32;;;;;;;1.38;0.98;;;;;;;13.16;44.92;94610.34;5087466;28;20567;-76
2024/02/24 00:16:57;;;;;;;1.05;0.82;;;;;;;13.25;44.61;94651.00;5087617;28;20121;-76
2024/02/24 00:19:22;;;;;;;2.05;1.02;;;;;;;13.26;44.57;94628.44;5087762;28;20028;-76
2024/02/24 00:21:48;;;;;;;0.93;0.80;;;;;;;13.26;44.50;94650.53;5087192;28;20077;-75
2024/02/24 00:24:13;;;;;;;1.52;1.10;;;;;;;13.33;44.08;94597.00;5087850;28;20024;-76
2024/02/24 00:26:39;;;;;;;1.15;0.70;;;;;;;13.37;43.93;94627.22;5087210;28;20503;-76
2024/02/24 00:29:05;;;;;;;2.83;1.20;;;;;;;13.35;43.79;94635.94;5088339;28;20027;-75
2024/02/24 00:31:30;;;;;;;1.00;0.82;;;;;;;13.40;43.94;94634.56;5085467;28;20430;-76
2024/02/24 00:33:56;;;;;;;1.95;0.98;;;;;;;13.46;43.81;94630.72;5087383;28;20451;-76
2024/02/24 00:36:21;;;;;;;1.63;0.80;;;;;;;13.40;43.24;94662.94;5087488;28;20130;-76
2024/02/24 00:38:47;;;;;;;2.00;1.08;;;;;;;13.28;44.27;94645.31;5087254;28;20055;-75
2024/02/24 00:41:12;;;;;;;2.65;1.10;;;;;;;13.29;44.57;94629.50;5087951;28;20040;-76
2024/02/24 00:43:37;;;;;;;3.95;0.93;;;;;;;13.32;44.58;94647.16;5086335;28;20126;-75
2024/02/24 00:46:03;;;;;;;1.00;0.80;;;;;;;13.31;44.40;94651.91;5088124;28;20024;-75
2024/02/24 00:48:29;;;;;;;1.60;1.17;;;;;;;13.31;44.39;94653.91;5084695;28;20364;-75
2024/02/24 00:50:55;;;;;;;1.90;1.20;;;;;;;13.25;45.00;94648.25;5087693;28;20473;-76
2024/02/24 00:53:20;;;;;;;1.88;1.23;;;;;;;13.18;45.00;94613.38;5086710;28;20024;-75
2024/02/24 00:55:45;;;;;;;1.83;1.35;;;;;;;13.20;45.06;94646.84;5086978;28;20070;-76
2024/02/24 00:58:11;;;;;;;2.78;1.30;;;;;;;13.17;45.34;94631.19;5087210;28;20099;-76
2024/02/24 01:00:36;;;;;;;1.27;0.95;;;;;;;13.14;45.09;94629.34;5086222;28;20028;-76
2024/02/24 01:03:01;;;;;;;2.05;1.00;;;;;;;13.11;44.88;94624.75;5087144;28;20040;-76
2024/02/24 01:05:27;;;;;;;3.53;1.10;;;;;;;13.16;44.69;94629.66;5085724;28;20040;-76
2024/02/24 01:07:55;;;;;;;2.67;1.30;;;;;;;13.13;45.04;94616.00;5086265;28;20024;-75
2024/02/24 01:10:25;;;;;;;2.08;1.02;;;;;;;13.09;45.09;94652.03;5086379;28;20157;-75
2024/02/24 01:12:51;;;;;;;1.55;0.95;;;;;;;12.93;45.49;94642.06;5086598;28;20032;-76
2024/02/24 01:15:17;;;;;;;1.40;1.00;;;;;;;12.95;45.29;94638.84;5086840;28;20470;-75
2024/02/24 01:17:42;;;;;;;1.30;1.00;;;;;;;13.02;45.45;94672.44;5086251;28;20027;-76
2024/02/24 01:20:08;;;;;;;1.95;1.20;;;;;;;13.03;45.25;94654.66;5086400;28;20027;-76
2024/02/24 01:22:34;;;;;;;2.20;0.82;;;;;;;12.93;45.53;94652.34;5085673;28;20028;-76
2024/02/24 01:24:59;;;;;;;0.90;0.70;;;;;;;12.88;45.84;94639.16;5087079;28;20429;-75
2024/02/24 01:27:24;;;;;;;2.58;1.02;;;;;;;12.82;45.85;94652.78;5084153;28;20473;-76
2024/02/24 01:29:50;;;;;;;2.95;1.05;;;;;;;12.85;45.36;94651.13;5086679;28;20020;-75
2024/02/24 01:32:15;;;;;;;1.95;1.33;;;;;;;12.87;46.12;94646.66;5086159;28;20101;-75
2024/02/24 01:34:41;;;;;;;1.67;1.10;;;;;;;12.71;46.88;94633.91;5086182;28;20023;-75
2024/02/24 01:37:06;;;;;;;1.67;1.08;;;;;;;12.71;46.64;94638.69;5086658;28;20107;-76
2024/02/24 01:39:32;;;;;;;2.20;1.30;;;;;;;12.58;47.25;94640.81;5085560;28;20443;-75
2024/02/24 01:41:57;;;;;;;2.75;1.05;;;;;;;12.61;46.36;94639.88;5086828;28;20074;-76
2024/02/24 01:44:23;;;;;;;1.58;1.10;;;;;;;12.57;46.74;94617.22;5085362;28;20039;-76
2024/02/24 01:46:49;;;;;;;1.98;1.30;;;;;;;12.58;46.85;94614.00;5086580;28;20047;-76
2024/02/24 01:49:15;;;;;;;2.33;1.10;;;;;;;12.55;47.22;94590.09;5085774;28;20093;-76
2024/02/24 01:51:41;;;;;;;1.88;1.23;;;;;;;12.57;47.11;94606.19;5085376;28;20043;-76
2024/02/24 01:54:08;;;;;;;2.97;1.30;;;;;;;12.60;46.81;94586.72;5086117;28;20025;-76
2024/02/24 01:56:35;;;;;;;1.33;1.17;;;;;;;12.54;46.58;94591.31;5084137;28;20115;-76
2024/02/24 01:59:01;;;;;;;1.83;1.00;;;;;;;12.44;46.58;94628.34;5085992;28;20031;-76
2024/02/24 02:01:27;;;;;;;1.33;0.90;;;;;;;12.49;46.31;94603.72;5083448;28;20032;-76
2024/02/24 02:03:52;;;;;;;2.47;1.08;;;;;;;12.52;46.23;94620.56;5086238;28;20048;-75
2024/02/24 02:06:18;;;;;;;2.08;0.95;;;;;;;12.49;45.95;94595.44;5085004;28;20383;-76
2024/02/24 02:08:43;;;;;;;1.83;1.10;;;;;;;12.55;45.71;94597.59;5086001;28;20024;-76
2024/02/24 02:11:09;;;;;;;5.72;1.20;;;;;;;12.56;45.46;94623.94;5085634;28;20028;-75
2024/02/24 02:13:35;;;;;;;2.67;1.20;;;;;;;12.59;45.29;94600.97;5085070;28;20548;-75
2024/02/24 02:16:04;;;;;;;2.83;1.23;;;;;;;12.58;45.40;94610.47;5084501;28;20067;-76
2024/02/24 02:18:29;;;;;;;1.38;0.80;;;;;;;12.59;45.13;94609.25;5084693;28;20020;-76
2024/02/24 02:20:55;;;;;;;2.30;0.90;;;;;;;12.61;45.22;94662.69;5086346;28;20344;-76
2024/02/24 02:23:20;;;;;;;1.42;1.00;;;;;;;12.61;45.17;94599.28;5084729;28;20024;-75
2024/02/24 02:25:46;;;;;;;3.30;1.25;;;;;;;12.63;45.07;94623.66;5086322;28;20021;-76
2024/02/24 02:28:11;;;;;;;2.40;1.10;;;;;;;12.60;45.19;94602.50;5084134;28;20494;-76
2024/02/24 02:30:37;;;;;;;5.32;1.10;;;;;;;12.54;44.93;94605.09;5085157;28;20031;-76
2024/02/24 02:33:04;;;;;;;4.22;1.02;;;;;;;12.55;45.23;94612.13;5088957;28;20102;-76
2024/02/24 02:35:31;;;;;;;1.65;0.98;;;;;;;12.61;45.13;94604.78;5088886;28;20031;-76
2024/02/24 02:37:56;;;;;;;3.80;1.20;;;;;;;12.63;44.80;94618.91;5090064;28;20383;-76
2024/02/24 02:40:21;;;;;;;3.65;1.75;;;;;;;12.69;44.30;94616.31;5088703;28;20102;-76
2024/02/24 02:42:47;;;;;;;2.30;1.50;;;;;;;12.67;44.03;94610.47;5090282;28;20161;-75
2024/02/24 02:45:12;;;;;;;4.63;2.70;;;;;;;12.75;43.92;94617.22;5088946;28;20039;-75
2024/02/24 02:47:38;;;;;;;6.53;4.18;;;;;;;12.75;43.64;94625.50;5089531;28;20132;-76
2024/02/24 02:50:04;;;;;;;6.38;4.63;;;;;;;12.69;43.49;94624.59;5089428;28;20437;-75
2024/02/24 02:52:30;;;;;;;5.72;4.15;;;;;;;12.43;43.99;94619.31;5088750;28;20573;-76
2024/02/24 02:54:55;;;;;;;7.40;3.97;;;;;;;12.53;43.80;94644.16;5090025;28;20252;-76
2024/02/24 02:57:23;;;;;;;6.10;4.30;;;;;;;12.47;43.89;94647.53;5088312;28;20024;-75
2024/02/24 02:59:48;;;;;;;5.72;3.88;;;;;;;12.32;43.88;94626.50;5089517;28;20085;-75
2024/02/24 03:02:13;;;;;;;7.32;4.88;;;;;;;12.30;43.92;94649.00;5088509;28;20081;-76
2024/02/24 03:04:39;;;;;;;6.82;4.57;;;;;;;12.24;43.98;94639.81;5089384;28;20024;-75
2024/02/24 03:07:04;;;;;;;4.57;2.80;;;;;;;12.20;44.57;94642.69;5089104;28;20032;-76
2024/02/24 03:09:29;;;;;;;4.97;3.20;;;;;;;12.13;44.76;94639.47;5088651;28;20173;-75
2024/02/24 03:11:55;;;;;;;4.50;2.97;;;;;;;11.99;45.36;94635.28;5089453;28;20024;-75
2024/02/24 03:14:20;;;;;;;4.57;2.47;;;;;;;11.98;45.43;94632.97;5088290;28;20096;-74
2024/02/24 03:16:45;;;;;;;6.75;4.32;;;;;;;11.85;45.28;94622.03;5087925;28;20039;-75
2024/02/24 03:19:11;;;;;;;2.00;1.67;;;;;;;11.96;45.61;94641.69;5088182;28;20020;-76
2024/02/24 03:21:36;;;;;;;3.10;2.00;;;;;;;11.85;45.75;94624.81;5089514;28;20100;-76
2024/02/24 03:24:02;;;;;;;4.30;3.47;;;;;;;11.72;45.80;94633.13;5088276;28;20500;-76
2024/02/24 03:26:28;;;;;;;7.30;3.90;;;;;;;11.64;46.01;94640.13;5088739;28;20031;-76
2024/02/24 03:28:54;;;;;;;5.38;3.83;;;;;;;11.64;46.02;94631.84;5088884;28;20178;-76
2024/02/24 03:31:19;;;;;;;5.03;3.85;;;;;;;11.65;45.94;94644.41;5088444;28;20024;-76
2024/02/24 03:33:45;;;;;;;4.53;3.33;;;;;;;11.56;46.10;94636.09;5088596;28;20028;-76
2024/02/24 03:36:14;;;;;;;6.18;3.60;;;;;;;11.52;46.21;94640.97;5088034;28;20038;-75
2024/02/24 03:38:40;;;;;;;3.97;2.17;;;;;;;11.56;46.22;94650.63;5089024;28;20038;-76
2024/02/24 03:41:06;;;;;;;4.93;3.13;;;;;;;11.61;46.14;94641.03;5087780;28;20415;-75
2024/02/24 03:43:31;;;;;;;4.88;3.08;;;;;;;11.58;46.28;94652.94;5087606;28;20016;-76
2024/02/24 03:45:56;;;;;;;8.27;4.05;;;;;;;11.59;46.18;94669.00;5088384;28;20493;-76
2024/02/24 03:48:22;;;;;;;5.88;4.10;;;;;;;11.55;46.31;94668.38;5088003;28;20103;-75
2024/02/24 03:50:48;;;;;;;5.47;4.15;;;;;;;11.54;46.24;94669.59;5088831;28;20032;-76
2024/02/24 03:53:13;;;;;;;5.70;4.10;;;;;;;11.55;46.16;94671.13;5086756;28;20016;-76
2024/02/24 03:55:39;;;;;;;7.68;4.47;;;;;;;11.56;46.16;94677.41;5088424;28;20028;-75
2024/02/24 03:58:04;;;;;;;5.22;4.00;;;;;;;11.39;46.20;94665.81;5087365;28;20043;-76
2024/02/24 04:00:34;;;;;;;5.38;3.40;;;;;;;11.48;46.35;94673.38;5088316;28;20557;-76
2024/02/24 04:03:00;;;;;;;4.50;3.20;;;;;;;11.44;46.37;94659.72;5087694;28;20505;-76
2024/02/24 04:05:25;;;;;;;3.28;2.72;;;;;;;11.38;46.38;94659.53;5087954;28;20035;-76
2024/02/24 04:07:51;;;;;;;3.70;2.50;;;;;;;11.44;46.09;94679.78;5088161;28;20020;-76
2024/02/24 04:10:16;;;;;;;6.03;3.35;;;;;;;11.38;46.34;94673.31;5087730;28;20448;-76
2024/02/24 04:12:41;;;;;;;4.00;2.90;;;;;;;11.31;46.43;94650.78;5088120;28;20028;-76
2024/02/24 04:15:07;;;;;;;4.30;2.42;;;;;;;11.31;46.27;94670.06;5087447;28;20099;-76
2024/02/24 04:17:32;;;;;;;4.50;1.90;;;;;;;11.29;46.25;94667.72;5088190;28;20112;-76
2024/02/24 04:19:58;;;;;;;3.53;1.73;;;;;;;11.36;46.30;94658.47;5087097;28;20133;-77
2024/02/24 04:22:23;;;;;;;2.60;1.65;;;;;;;11.48;45.82;94692.66;5088001;28;20426;-76
2024/02/24 04:24:49;;;;;;;3.15;2.03;;;;;;;11.53;45.94;94678.31;5087403;28;20024;-75
2024/02/24 04:27:15;;;;;;;3.83;1.88;;;;;;;11.47;46.16;94694.63;5087290;28;20020;-76
2024/02/24 04:29:40;;;;;;;4.45;2.58;;;;;;;11.44;46.20;94690.00;5087778;28;20039;-76
2024/02/24 04:32:05;;;;;;;3.70;2.90;;;;;;;11.46;46.07;94693.06;5086935;28;20024;-76
2024/02/24 04:34:31;;;;;;;4.05;2.70;;;;;;;11.39;45.93;94690.59;5087824;28;20043;-76
2024/02/24 04:36:56;;;;;;;5.63;2.60;;;;;;;11.43;45.96;94703.00;5086893;28;20043;-76
2024/02/24 04:39:22;;;;;;;2.88;1.65;;;;;;;11.49;45.66;94707.94;5088033;28;20046;-76
2024/02/24 04:41:48;;;;;;;4.30;2.22;;;;;;;11.52;45.75;94707.03;5085609;28;20028;-76
2024/02/24 04:44:14;;;;;;;4.05;2.90;;;;;;;11.51;45.97;94711.78;5087157;28;20028;-76
2024/02/24 04:46:39;;;;;;;4.13;2.10;;;;;;;11.39;46.01;94702.34;5087035;28;20026;-76
2024/02/24 04:49:05;;;;;;;3.65;2.60;;;;;;;11.34;46.31;94707.66;5087063;28;20028;-75
2024/02/24 04:51:31;;;;;;;6.72;1.90;;;;;;;11.39;45.76;94699.59;5087539;28;20123;-75
2024/02/24 04:53:57;;;;;;;2.58;1.50;;;;;;;11.44;45.47;94685.28;5086386;28;20027;-75
2024/02/24 04:56:22;;;;;;;2.50;1.80;;;;;;;11.50;45.69;94713.00;5087423;28;20020;-75
2024/02/24 04:58:47;;;;;;;2.05;1.23;;;;;;;11.49;44.99;94702.44;5086035;28;20077;-76
2024/02/24 05:01:16;;;;;;;1.98;1.33;;;;;;;11.66;44.62;94707.28;5087334;28;20146;-76
2024/02/24 05:03:41;;;;;;;2.28;0.93;;;;;;;11.73;44.97;94711.00;5086373;28;20044;-76
2024/02/24 05:06:08;;;;;;;2.17;1.50;;;;;;;11.75;45.12;94714.81;5086667;28;20034;-75
2024/02/24 05:08:34;;;;;;;1.83;1.20;;;;;;;11.75;45.07;94714.06;5086904;28;20088;-76
2024/02/24 05:11:00;;;;;;;2.42;1.20;;;;;;;11.78;45.40;94713.19;5086313;28;20113;-76
2024/02/24 05:13:25;;;;;;;2.20;1.48;;;;;;;11.79;45.17;94709.19;5087304;28;20055;-75
2024/02/24 05:15:51;;;;;;;2.00;1.33;;;;;;;11.76;45.53;94704.59;5086264;28;20040;-76
2024/02/24 05:18:17;;;;;;;1.92;1.40;;;;;;;11.81;45.51;94726.03;5087070;28;20452;-75
2024/02/24 05:20:42;;;;;;;1.98;1.33;;;;;;;11.80;45.26;94719.75;5086102;28;20400;-76
2024/02/24 05:23:08;;;;;;;3.35;1.45;;;;;;;11.83;45.43;94724.41;5086611;28;20525;-76
2024/02/24 05:25:34;;;;;;;2.80;1.40;;;;;;;11.92;45.21;94731.94;5086231;28;20725;-76
2024/02/24 05:28:00;;;;;;;2.20;1.60;;;;;;;11.90;45.39;94745.41;5086003;28;20103;-77
2024/02/24 05:30:26;;;;;;;4.35;1.60;;;;;;;11.99;45.11;94750.22;5087278;28;20493;-75
2024/02/24 05:32:51;;;;;;;4.30;2.28;;;;;;;12.01;44.96;94754.06;5085886;28;20518;-76
2024/02/24 05:35:16;;;;;;;5.60;2.88;;;;;;;12.06;44.90;94756.22;5087296;28;20035;-75
2024/02/24 05:37:42;;;;;;;4.32;2.80;;;;;;;11.96;45.14;94766.41;5085714;28;20392;-77
2024/02/24 05:40:08;;;;;;;3.75;2.97;;;;;;;11.94;45.27;94781.88;5086642;28;20043;-78
2024/02/24 05:42:33;;;;;;;4.07;3.05;;;;;;;11.96;45.16;94771.16;5086246;28;20357;-76
2024/02/24 05:44:59;;;;;;;5.45;3.25;;;;;;;11.93;45.36;94775.59;5085822;28;20115;-77
2024/02/24 05:47:24;;;;;;;5.78;3.67;;;;;;;11.92;45.34;94773.25;5086830;28;20028;-76
2024/02/24 05:49:50;;;;;;;6.43;3.33;;;;;;;11.90;45.35;94781.97;5085289;28;20843;-77
2024/02/24 05:52:18;;;;;;;7.57;3.22;;;;;;;11.89;45.33;94805.25;5086647;28;20028;-76
2024/02/24 05:54:43;;;;;;;5.30;3.13;;;;;;;11.86;45.28;94797.88;5085065;28;20100;-76
2024/02/24 05:57:09;;;;;;;6.13;3.10;;;;;;;11.83;45.38;94792.50;5086433;28;20170;-76
2024/02/24 05:59:35;;;;;;;6.15;3.20;;;;;;;11.73;45.53;94786.13;5085155;28;20467;-76
2024/02/24 06:02:00;;;;;;;4.72;3.22;;;;;;;11.78;45.64;94804.81;5085598;28;20075;-76
2024/02/24 06:04:26;;;;;;;5.25;3.58;;;;;;;11.74;45.68;94795.91;5086069;28;20038;-76
2024/02/24 06:06:51;;;;;;;5.07;3.40;;;;;;;11.70;45.93;94820.84;5084501;28;20027;-77
2024/02/24 06:09:17;;;;;;;5.63;4.03;;;;;;;11.66;45.88;94806.41;5086344;28;20028;-76
2024/02/24 06:11:42;;;;;;;5.88;3.50;;;;;;;11.70;45.56;94792.53;5084844;28;20024;-75
2024/02/24 06:14:08;;;;;;;4.82;2.60;;;;;;;11.57;45.27;94805.56;5086412;28;20272;-76
2024/02/24 06:16:33;;;;;;;5.45;3.65;;;;;;;11.60;45.58;94816.47;5085211;28;20058;-76
2024/02/24 06:18:59;;;;;;;5.03;3.30;;;;;;;11.61;45.86;94820.00;5084381;28;20028;-76
2024/02/24 06:21:25;;;;;;;5.25;3.30;;;;;;;11.73;45.65;94823.91;5085940;28;20021;-77
2024/02/24 06:23:51;;;;;;;4.45;3.17;;;;;;;11.70;45.85;94820.06;5085488;28;20040;-77
2024/02/24 06:26:17;;;;;;;6.32;4.20;;;;;;;11.72;45.82;94814.09;5084722;28;20059;-76
2024/02/24 06:28:42;;;;;;;5.93;3.70;;;;;;;11.79;45.62;94831.16;5084795;28;20169;-75
2024/02/24 06:31:08;;;;;;;6.00;3.70;;;;;;;11.88;45.67;94827.72;5086625;28;20141;-76
2024/02/24 06:33:33;;;;;;;8.25;3.75;;;;;;;11.89;45.54;94823.75;5084678;28;20038;-76
2024/02/24 06:35:59;;;;;;;5.53;3.40;;;;;;;12.01;45.44;94819.41;5085981;28;20032;-77
2024/02/24 06:38:24;;;;;;;5.05;3.35;;;;;;;12.04;45.40;94818.50;5085848;28;20016;-76
2024/02/24 06:40:50;;;;;;;4.72;2.88;;;;;;;12.21;44.68;94808.81;5085655;28;20053;-76
2024/02/24 06:43:15;;;;;;;5.20;3.08;;;;;;;12.25;44.79;94819.69;5085823;28;20478;-77
2024/02/24 06:45:41;;;;;;;6.28;3.50;;;;;;;12.31;44.75;94809.63;5084779;28;20040;-76
2024/02/24 06:48:06;;;;;;;6.07;3.53;;;;;;;12.38;44.88;94821.16;5085840;28;20475;-76
2024/02/24 06:50:32;;;;;;;4.72;3.55;;;;;;;12.47;44.70;94812.94;5084667;28;20464;-77
2024/02/24 06:52:57;;;;;;;3.97;2.10;;;;;;;12.61;42.84;94805.31;5086234;28;20077;-76
2024/02/24 06:55:22;;;;;;;6.85;3.13;;;;;;;12.61;43.57;94799.81;5084895;28;20106;-76
2024/02/24 06:57:49;;;;;;;5.40;3.50;;;;;;;12.76;43.76;94801.56;5085305;28;20079;-76
2024/02/24 07:00:15;;;;;;;6.40;3.67;;;;;;;12.84;43.74;94813.09;5085138;28;20028;-76
2024/02/24 07:02:40;;;;;;;5.75;3.65;;;;;;;12.83;43.59;94808.78;5084540;28;20093;-75
2024/02/24 07:05:07;;;;;;;7.43;3.70;;;;;;;12.85;43.61;94803.59;5085817;28;20024;-76
2024/02/24 07:07:32;;;;;;;5.55;3.45;;;;;;;12.92;43.54;94810.81;5084449;28;20020;-77
2024/02/24 07:09:59;;;;;;;5.53;2.88;;;;;;;12.94;43.18;94809.13;5084557;28;20032;-76
2024/02/24 07:12:24;;;;;;;5.72;3.70;;;;;;;13.00;43.35;94814.81;5084811;28;20104;-77
2024/02/24 07:14:50;;;;;;;6.25;3.50;;;;;;;13.00;43.25;94812.84;5084326;28;20457;-76
2024/02/24 07:17:18;;;;;;;5.20;3.45;;;;;;;13.05;43.19;94807.94;5084975;28;20020;-76
2024/02/24 07:19:44;;;;;;;6.03;3.95;;;;;;;13.14;43.08;94825.31;5088626;28;20028;-76
2024/02/24 07:22:09;;;;;;;5.32;2.47;;;;;;;13.15;41.38;94804.75;5089173;28;20046;-76
2024/02/24 07:24:34;;;;;;;5.85;3.72;;;;;;;13.22;41.67;94803.72;5088251;28;20024;-77
2024/02/24 07:27:00;;;;;;;3.67;2.40;;;;;;;13.26;41.06;94812.63;5089329;28;20501;-76
2024/02/24 07:29:25;;;;;;;4.82;3.60;;;;;;;13.33;41.57;94801.28;5087068;28;20107;-78
2024/02/24 07:31:50;;;;;;;10.13;3.70;;;;;;;13.42;41.82;94817.09;5089018;28;20486;-78
2024/02/24 07:34:16;;;;;;;8.48;3.85;;;;;;;13.48;41.73;94816.03;5088298;28;20446;-77
2024/02/24 07:36:41;;;;;;;7.60;5.35;;;;;;;13.55;42.08;94815.75;5088556;28;20024;-76
2024/02/24 07:39:06;;;;;;;9.25;5.60;;;;;;;13.71;41.99;94827.72;5088561;28;20386;-76
2024/02/24 07:41:32;;;;;;;10.55;3.92;;;;;;;13.77;41.81;94821.13;5088263;28;20024;-76
2024/02/24 07:43:57;;;;;;;7.00;4.18;;;;;;;13.91;41.69;94827.25;5088954;28;20028;-75
2024/02/24 07:46:30;;;;;;;6.28;3.60;;;;;;;14.04;40.96;94828.63;5087724;28;20418;-76
2024/02/24 07:48:56;;;;;;;3.37;2.20;;;;;;;14.20;38.59;94840.59;5087567;28;20197;-76
2024/02/24 07:51:21;;;;;;;1.88;1.40;;;;;;;14.37;38.04;94818.91;5087547;28;20043;-77
2024/02/24 07:53:47;;;;;;;2.85;1.58;;;;;;;14.60;37.66;94821.03;5088228;28;20027;-76
2024/02/24 07:56:12;;;;;;;2.25;1.88;;;;;;;14.78;37.93;94834.03;5088035;28;20023;-75
2024/02/24 07:58:37;;;;;;;5.65;2.53;;;;;;;14.95;37.79;94828.88;5087351;28;20031;-77
2024/02/24 08:01:03;;;;;;;4.63;2.20;;;;;;;15.18;37.37;94844.78;5088398;28;20016;-77
2024/02/24 08:03:28;;;;;;;3.88;1.83;;;;;;;15.48;35.89;94833.84;5087294;28;20067;-77
2024/02/24 08:05:54;;;;;;;3.38;1.65;;;;;;;15.70;35.82;94839.88;5088634;28;20035;-76
2024/02/24 08:08:19;;;;;;;4.03;1.45;;;;;;;15.86;35.54;94836.69;5087198;28;20020;-76
2024/02/24 08:10:45;;;;;;;2.90;2.00;;;;;;;16.13;35.55;94843.25;5088168;28;20066;-76
2024/02/24 08:13:10;;;;;;;4.72;2.63;;;;;;;16.36;35.43;94855.53;5087651;28;20375;-77
2024/02/24 08:15:37;;;;;;;4.00;2.50;;;;;;;16.71;34.68;94848.09;5088035;28;20242;-76
2024/02/24 08:18:02;;;;;;;4.68;1.95;;;;;;;16.97;33.69;94841.94;5087780;28;20037;-75
2024/02/24 08:20:28;;;;;;;2.80;1.70;;;;;;;17.31;33.47;94845.22;5087877;28;20020;-76
2024/02/24 08:22:53;;;;;;;2.72;1.70;;;;;;;17.72;32.31;94849.66;5088073;28;20020;-77
2024/02/24 08:25:18;;;;;;;3.08;1.50;;;;;;;18.02;32.54;94871.75;5086762;28;20115;-76
2024/02/24 08:27:44;;;;;;;4.05;1.95;;;;;;;18.21;31.33;94856.28;5088125;28;20020;-76
2024/02/24 08:30:09;;;;;;;1.88;1.40;;;;;;;18.55;31.53;94853.88;5086637;28;20447;-76
2024/02/24 08:32:35;;;;;;;3.65;2.10;;;;;;;18.85;30.92;94846.06;5088257;28;20419;-77
2024/02/24 08:35:00;;;;;;;3.78;1.65;;;;;;;18.89;30.29;94851.41;5087083;28;20023;-76
2024/02/24 08:37:25;;;;;;;3.17;1.75;;;;;;;18.93;30.66;94849.94;5087288;28;20320;-76
2024/02/24 08:39:51;;;;;;;5.60;2.25;;;;;;;19.04;30.56;94858.38;5086126;28;20106;-76
2024/02/24 08:42:16;;;;;;;7.95;3.38;;;;;;;19.33;30.64;94848.97;5086850;28;20036;-76
2024/02/24 08:44:42;;;;;;;2.55;1.50;;;;;;;19.46;29.34;94845.00;5087946;28;20120;-75
2024/02/24 08:47:08;;;;;;;3.58;2.00;;;;;;;19.59;29.31;94867.66;5086375;28;20051;-76
2024/02/24 08:49:33;;;;;;;3.67;1.40;;;;;;;19.44;29.72;94867.00;5088088;28;20115;-76
2024/02/24 08:51:59;;;;;;;2.28;1.33;;;;;;;19.93;29.13;94860.22;5086534;28;20406;-77
2024/02/24 08:54:24;;;;;;;3.40;1.40;;;;;;;20.02;29.53;94862.81;5087234;28;20073;-77
2024/02/24 08:56:50;;;;;;;4.30;1.52;;;;;;;20.08;28.80;94860.81;5086729;28;20030;-76
2024/02/24 08:59:15;;;;;;;2.75;1.30;;;;;;;20.28;28.80;94881.44;5086270;28;20454;-77
2024/02/24 09:01:40;;;;;;;2.50;1.38;;;;;;;19.93;28.71;94860.22;5087241;28;20024;-74
2024/02/24 09:04:06;;;;;;;2.38;1.35;;;;;;;20.19;28.31;94864.91;5086123;28;20028;-76
2024/02/24 09:06:35;;;;;;;3.40;1.52;;;;;;;20.80;27.43;94862.28;5087597;28;20064;-76
2024/02/24 09:09:07;;;;;;;3.45;1.88;;;;;;;21.81;26.70;94853.88;5086141;28;20028;-77
2024/02/24 09:11:32;;;;;;;1.88;1.30;;;;;;;21.99;25.92;94856.09;5087030;28;20024;-76
2024/02/24 09:13:57;;;;;;;1.70;0.95;;;;;;;22.67;24.94;94862.16;5086498;28;20020;-77
2024/02/24 09:16:23;;;;;;;1.80;1.10;;;;;;;23.09;24.15;94862.94;5086633;28;20031;-76
2024/02/24 09:18:48;;;;;;;2.00;1.30;;;;;;;23.79;23.67;94864.09;5085138;28;20425;-76
2024/02/24 09:21:14;;;;;;;2.10;1.30;;;;;;;24.09;22.74;94874.53;5085882;28;20045;-76
2024/02/24 09:23:39;;;;;;;1.60;0.98;;;;;;;24.92;22.27;94859.94;5087414;28;20046;-76
2024/02/24 09:26:04;;;;;;;2.88;1.13;;;;;;;24.46;22.26;94868.22;5085915;28;20032;-76
2024/02/24 09:28:30;;;;;;;2.03;1.00;;;;;;;25.13;21.82;94847.63;5087048;28;20092;-76
2024/02/24 09:30:55;;;;;;;2.78;1.52;;;;;;;25.70;21.09;94850.25;5086289;28;20039;-77
2024/02/24 09:33:21;;;;;;;2.45;1.40;;;;;;;25.89;21.62;94853.75;5086196;28;20524;-77
2024/02/24 09:35:46;;;;;;;3.42;1.58;;;;;;;26.48;21.00;94843.09;5086582;28;20024;-77
2024/02/24 09:38:11;;;;;;;4.03;1.48;;;;;;;26.17;21.14;94839.13;5085718;28;20506;-76
2024/02/24 09:40:37;;;;;;;1.95;1.10;;;;;;;25.76;20.85;94861.44;5086522;28;20028;-76
2024/02/24 09:43:03;;;;;;;1.80;1.05;;;;;;;25.65;21.19;94851.09;5083222;28;20146;-76
2024/02/24 09:45:34;;;;;;;1.92;1.05;;;;;;;25.97;20.68;94856.66;5085570;28;20032;-77
2024/02/24 09:48:01;;;;;;;4.25;1.30;;;;;;;26.21;20.69;94850.06;5085177;28;20430;-77
2024/02/24 09:50:26;;;;;;;1.60;0.93;;;;;;;26.34;20.49;94866.97;5084939;28;20024;-77
2024/02/24 09:52:52;;;;;;;1.27;0.95;;;;;;;26.25;20.74;94870.19;5086182;28;20016;-77
2024/02/24 09:55:18;;;;;;;1.40;1.05;;;;;;;25.72;20.90;94861.72;5085604;28;20028;-77
2024/02/24 09:57:45;;;;;;;1.92;1.27;;;;;;;25.24;21.42;94852.31;5084909;28;20024;-77
2024/02/24 10:00:11;;;;;;;2.92;1.40;;;;;;;25.31;21.67;94853.72;5083713;28;20031;-77
2024/02/24 10:02:36;;;;;;;2.10;1.40;;;;;;;25.42;21.93;94864.78;5086599;28;20040;-76
2024/02/24 10:05:02;;;;;;;1.33;0.90;;;;;;;25.23;21.36;94838.75;5085344;28;20419;-77
2024/02/24 10:07:29;;;;;;;2.72;1.23;;;;;;;24.72;21.79;94842.34;5086383;28;20026;-76
2024/02/24 10:09:55;;;;;;;3.67;1.10;;;;;;;24.34;22.25;94861.97;5085589;28;20028;-76
2024/02/24 10:12:24;;;;;;;1.33;1.08;;;;;;;24.53;22.32;94864.78;5084456;28;20563;-77
2024/02/24 10:14:49;;;;;;;1.65;1.10;;;;;;;23.83;22.70;94881.41;5085728;28;20029;-77
2024/02/24 10:17:15;;;;;;;1.70;1.15;;;;;;;23.18;23.65;94842.22;5084808;28;20023;-77
2024/02/24 10:19:40;;;;;;;2.40;1.30;;;;;;;23.25;23.93;94855.66;5086484;28;20024;-77
2024/02/24 10:22:05;;;;;;;4.28;1.30;;;;;;;23.05;23.89;94849.22;5084568;28;20086;-76
2024/02/24 10:24:31;;;;;;;2.92;1.20;;;;;;;22.48;24.52;94856.44;5085926;28;20032;-77
2024/02/24 10:26:57;;;;;;;1.80;1.10;;;;;;;22.47;24.41;94840.88;5085283;28;20332;-76
2024/02/24 10:29:32;;;;;;;2.28;1.33;;;;;;;22.25;25.04;94849.38;5085377;28;20434;-76
2024/02/24 10:31:58;;;;;;;2.60;1.30;;;;;;;21.59;25.74;94834.34;5085578;28;20024;-76
2024/02/24 10:34:24;;;;;;;5.28;1.98;;;;;;;21.38;26.22;94822.66;5084907;28;20024;-77
2024/02/24 10:36:50;;;;;;;3.88;1.55;;;;;;;20.74;26.82;94828.00;5085852;28;20028;-76
2024/02/24 10:39:16;;;;;;;4.88;1.85;;;;;;;20.65;27.35;94831.81;5084816;28;20024;-77
2024/02/24 10:41:44;;;;;;;3.78;2.65;;;;;;;19.78;28.43;94817.81;5085989;28;20123;-75
2024/02/24 10:44:10;;;;;;;1.90;1.38;;;;;;;19.77;28.32;94836.56;5084993;28;20085;-76
2024/02/24 10:46:35;;;;;;;2.10;1.17;;;;;;;19.54;29.04;94829.31;5084241;28;20031;-76
2024/02/24 10:49:01;;;;;;;2.50;1.25;;;;;;;19.58;28.40;94827.06;5085639;28;20039;-76
2024/02/24 10:51:26;;;;;;;2.15;1.23;;;;;;;19.03;29.57;94831.78;5085072;28;20031;-75
2024/02/24 10:53:54;;;;;;;3.28;1.52;;;;;;;18.94;29.89;94839.56;5088575;28;20055;-77
2024/02/24 10:56:20;;;;;;;2.05;1.27;;;;;;;18.77;30.13;94819.94;5088584;28;20093;-76
2024/02/24 10:58:46;;;;;;;3.40;1.50;;;;;;;19.07;29.70;94826.75;5088381;28;20107;-75
2024/02/24 11:01:12;;;;;;;2.45;1.50;;;;;;;19.11;30.04;94834.88;5087586;28;20091;-76
2024/02/24 11:03:38;;;;;;;5.70;2.00;;;;;;;18.84;30.14;94848.09;5088016;28;20152;-75
2024/02/24 11:06:04;;;;;;;2.60;1.70;;;;;;;18.40;30.50;94839.28;5088737;28;20162;-77
2024/02/24 11:08:37;;;;;;;2.35;1.05;;;;;;;17.87;31.38;94824.53;5088880;28;20609;-76
2024/02/24 11:11:04;;;;;;;;;;;;;;;17.59;32.35;94826.94;5088634;28;20054;-76
2024/02/24 11:13:29;;;;;;;11.43;5.28;;;;;;;17.60;32.38;94819.34;5087042;28;19927;-76
2024/02/24 11:15:55;;;;;;;4.28;2.20;;;;;;;17.62;32.53;94831.53;5088160;28;20024;-76
2024/02/24 11:18:49;;;;;;;2.55;1.52;;;;;;;17.76;32.38;94827.19;5086965;28;20035;-76
2024/02/24 11:21:17;;;;;;;3.47;1.60;;;;;;;17.62;32.50;94825.97;5089026;28;20024;-76
2024/02/24 11:23:44;;;;;;;4.40;1.50;;;;;;;17.75;32.23;94814.53;5087744;28;20061;-75
2024/02/24 11:26:13;;;;;;;1.95;1.48;;;;;;;17.73;32.07;94822.59;5088302;28;20032;-76
2024/02/24 11:28:44;;;;;;;3.63;1.60;;;;;;;17.50;32.33;94818.75;5089446;28;20513;-77